Terminal Aerodrome Forecast
Issued by NWS

Home | Current Version | Previous Version | Text Only | Print | Product List | Glossary On
Versions: 1 2 3 4 5 6 7 8 9 10 11 12 13 14 15 16 17 18 19 20 21 22 23 24 25
000
FTUS42 KJAX 202320
TAFVQQ
TAF
KVQQ 202320Z 2100/2124 13008KT P6SM SCT025
     FM210800 13003KT 3SM BR SCT006 BKN012
      TEMPO 2109/2113 1SM BR OVC006
     FM211500 14008KT P6SM BKN020
     FM211900 14012G18KT P6SM SCT030=

USA.gov is the U.S. government's official web portal to all federal, state and local government web resources and services.